createdAt,value
2017-01-30T00:00:14.724Z,1005.35
2017-01-30T00:00:36.517Z,1005.30
2017-01-30T00:00:58.218Z,1005.38
2017-01-30T00:01:19.931Z,1005.37
2017-01-30T00:01:41.660Z,1005.35
2017-01-30T00:02:44.249Z,1005.34
2017-01-30T00:03:05.977Z,1005.43
2017-01-30T00:03:27.783Z,1005.40
2017-01-30T00:04:20.747Z,1005.39
2017-01-30T00:04:47.227Z,1005.39
2017-01-30T00:05:08.933Z,1005.32
2017-01-30T00:05:30.638Z,1005.32
2017-01-30T00:05:57.118Z,1005.35
2017-01-30T00:06:18.911Z,1005.29
2017-01-30T00:06:40.620Z,1005.39
2017-01-30T00:07:02.328Z,1005.34
2017-01-30T00:07:28.804Z,1005.33
2017-01-30T00:08:21.872Z,1005.29
2017-01-30T00:08:43.576Z,1005.29
2017-01-30T00:09:46.743Z,1005.35
2017-01-30T00:10:08.546Z,1005.34
2017-01-30T00:10:30.265Z,1005.31
2017-01-30T00:10:56.749Z,1005.23
2017-01-30T00:11:18.444Z,1005.26
2017-01-30T00:11:40.154Z,1005.29
2017-01-30T00:12:01.976Z,1005.25
2017-01-30T00:12:23.696Z,1005.29
2017-01-30T00:12:45.405Z,1005.30
2017-01-30T00:13:07.235Z,1005.27
2017-01-30T00:13:28.937Z,1005.27
2017-01-30T00:13:55.431Z,1005.26
2017-01-30T00:14:17.138Z,1005.29
2017-01-30T00:15:10.181Z,1005.20
2017-01-30T00:16:12.801Z,1005.22
2017-01-30T00:16:34.514Z,1005.27
2017-01-30T00:17:41.817Z,1005.25
2017-01-30T00:18:03.616Z,1005.18
2017-01-30T00:19:10.904Z,1005.18
2017-01-30T00:19:32.705Z,1005.20
2017-01-30T00:19:59.214Z,1005.18
2017-01-30T00:20:20.902Z,1005.23
2017-01-30T00:21:24.155Z,1005.19
2017-01-30T00:21:45.851Z,1005.18
2017-01-30T00:22:49.178Z,1005.17
2017-01-30T00:23:10.902Z,1005.13
2017-01-30T00:24:14.082Z,1005.11
2017-01-30T00:24:35.776Z,1005.08
2017-01-30T00:24:57.490Z,1005.12
2017-01-30T00:25:50.555Z,1005.00
2017-01-30T00:26:43.635Z,1005.07
2017-01-30T00:27:05.351Z,1005.07
2017-01-30T00:27:31.836Z,1005.05
2017-01-30T00:27:53.646Z,1005.05
2017-01-30T00:28:20.127Z,1005.02
2017-01-30T00:28:41.868Z,1005.04
2017-01-30T00:29:34.877Z,1005.03
2017-01-30T00:30:27.963Z,1005.02
2017-01-30T00:31:20.951Z,1005.03
2017-01-30T00:32:14.001Z,1005.03
2017-01-30T00:33:07.063Z,1005.04
2017-01-30T00:34:00.137Z,1004.92
2017-01-30T00:34:21.954Z,1004.93
2017-01-30T00:34:48.446Z,1004.95
2017-01-30T00:35:10.155Z,1005.00
2017-01-30T00:35:31.969Z,1004.96
2017-01-30T00:36:24.967Z,1004.94
2017-01-30T00:36:46.783Z,1004.95
2017-01-30T00:37:39.756Z,1004.90
2017-01-30T00:38:27.944Z,1004.85
2017-01-30T00:39:30.528Z,1004.86
2017-01-30T00:39:52.230Z,1004.86
2017-01-30T00:40:18.714Z,1004.79
2017-01-30T00:40:40.533Z,1004.78
2017-01-30T00:41:02.267Z,1004.83
2017-01-30T00:41:23.955Z,1004.87
2017-01-30T00:41:45.664Z,1004.78
2017-01-30T00:42:12.148Z,1004.79
2017-01-30T00:42:33.975Z,1004.81
2017-01-30T00:43:00.479Z,1004.75
2017-01-30T00:43:22.275Z,1004.75
2017-01-30T00:43:44.158Z,1004.72
2017-01-30T00:44:10.655Z,1004.71
2017-01-30T00:44:32.409Z,1004.72
2017-01-30T00:44:54.143Z,1004.72
2017-01-30T00:45:52.453Z,1004.71
2017-01-30T00:46:14.350Z,1004.75
2017-01-30T00:46:36.088Z,1004.77
2017-01-30T00:47:02.566Z,1004.70
2017-01-30T00:47:24.361Z,1004.72
2017-01-30T00:47:50.844Z,1004.70
2017-01-30T00:48:12.553Z,1004.70
2017-01-30T00:48:34.403Z,1004.72
2017-01-30T00:49:00.878Z,1004.69
2017-01-30T00:49:22.590Z,1004.71
2017-01-30T00:49:44.287Z,1004.73
2017-01-30T00:50:10.885Z,1004.76
2017-01-30T00:50:32.578Z,1004.67
2017-01-30T00:50:54.312Z,1004.67
2017-01-30T00:51:20.801Z,1004.63
2017-01-30T00:51:42.603Z,1004.64
2017-01-30T00:52:04.410Z,1004.70
2017-01-30T00:52:57.454Z,1004.58
2017-01-30T00:53:19.159Z,1004.57
2017-01-30T00:54:12.337Z,1004.63
2017-01-30T00:55:15.884Z,1004.59
2017-01-30T00:55:42.354Z,1004.66
2017-01-30T00:56:04.067Z,1004.58
2017-01-30T00:56:57.029Z,1004.59
2017-01-30T00:58:04.304Z,1004.66
2017-01-30T00:58:26.094Z,1004.59
2017-01-30T00:59:28.702Z,1004.56
2017-01-30T00:59:55.177Z,1004.61
2017-01-30T01:00:16.888Z,1004.60
2017-01-30T01:01:09.845Z,1004.60
2017-01-30T01:02:17.121Z,1004.65
2017-01-30T01:02:38.911Z,1004.62
2017-01-30T01:03:00.626Z,1004.61
2017-01-30T01:03:53.674Z,1004.68
2017-01-30T01:04:15.394Z,1004.60
2017-01-30T01:04:37.104Z,1004.59
2017-01-30T01:04:58.792Z,1004.58
2017-01-30T01:05:20.580Z,1004.55
2017-01-30T01:06:13.568Z,1004.60
2017-01-30T01:06:35.364Z,1004.56
2017-01-30T01:06:57.064Z,1004.63
2017-01-30T01:07:18.767Z,1004.65
2017-01-30T01:07:40.477Z,1004.59
2017-01-30T01:08:02.179Z,1004.63
2017-01-30T01:08:23.885Z,1004.57
2017-01-30T01:08:45.674Z,1004.61
2017-01-30T01:09:07.371Z,1004.62
2017-01-30T01:09:29.072Z,1004.61
2017-01-30T01:09:50.784Z,1004.62
2017-01-30T01:10:12.576Z,1004.63
2017-01-30T01:10:34.487Z,1004.58
2017-01-30T01:11:27.432Z,1004.63
2017-01-30T01:12:20.464Z,1004.57
2017-01-30T01:12:42.248Z,1004.56
2017-01-30T01:13:08.729Z,1004.62
2017-01-30T01:13:30.428Z,1004.57
2017-01-30T01:13:52.124Z,1004.58
2017-01-30T01:14:55.217Z,1004.53
2017-01-30T01:15:16.923Z,1004.45
2017-01-30T01:16:09.980Z,1004.58
2017-01-30T01:16:31.782Z,1004.57
2017-01-30T01:17:24.823Z,1004.55
2017-01-30T01:17:51.305Z,1004.50
2017-01-30T01:18:13.015Z,1004.52
2017-01-30T01:18:34.732Z,1004.51
2017-01-30T01:19:01.295Z,1004.57
2017-01-30T01:19:23.189Z,1004.59
2017-01-30T01:19:44.903Z,1004.57
2017-01-30T01:20:06.692Z,1004.55
2017-01-30T01:20:28.390Z,1004.51
2017-01-30T01:20:54.927Z,1004.47
2017-01-30T01:21:16.751Z,1004.53
2017-01-30T01:21:38.522Z,1004.54
2017-01-30T01:22:00.322Z,1004.55
2017-01-30T01:22:22.108Z,1004.59
2017-01-30T01:22:48.584Z,1004.60
2017-01-30T01:23:10.309Z,1004.51
2017-01-30T01:23:32.109Z,1004.54
2017-01-30T01:23:58.668Z,1004.57
2017-01-30T01:24:20.363Z,1004.59
2017-01-30T01:24:46.843Z,1004.60
2017-01-30T01:25:08.554Z,1004.55
2017-01-30T01:25:30.257Z,1004.62
2017-01-30T01:25:52.044Z,1004.63
2017-01-30T01:26:13.837Z,1004.59
2017-01-30T01:26:35.535Z,1004.63
2017-01-30T01:27:28.568Z,1004.62
2017-01-30T01:27:55.051Z,1004.65
2017-01-30T01:28:17.326Z,1004.59
2017-01-30T01:28:39.112Z,1004.62
2017-01-30T01:29:32.069Z,1004.63
2017-01-30T01:30:25.111Z,1004.69
2017-01-30T01:31:18.245Z,1004.65
2017-01-30T01:32:11.290Z,1004.58
2017-01-30T01:32:32.990Z,1004.61
2017-01-30T01:32:54.695Z,1004.59
2017-01-30T01:33:16.413Z,1004.58
2017-01-30T01:33:42.902Z,1004.58
2017-01-30T01:34:04.689Z,1004.58
2017-01-30T01:34:33.882Z,1004.61
2017-01-30T01:34:55.668Z,1004.57
2017-01-30T01:35:17.575Z,1004.56
2017-01-30T01:35:44.046Z,1004.50
2017-01-30T01:36:05.743Z,1004.53
2017-01-30T01:36:27.429Z,1004.52
2017-01-30T01:36:49.237Z,1004.48
2017-01-30T01:37:10.933Z,1004.51
2017-01-30T01:37:32.724Z,1004.49
2017-01-30T01:37:54.521Z,1004.59
2017-01-30T01:38:16.249Z,1004.52
2017-01-30T01:38:38.051Z,1004.48
2017-01-30T01:39:04.619Z,1004.53
2017-01-30T01:39:26.317Z,1004.57
2017-01-30T01:39:48.037Z,1004.57
2017-01-30T01:40:09.844Z,1004.56
2017-01-30T01:40:31.645Z,1004.58
2017-01-30T01:40:53.467Z,1004.53
2017-01-30T01:41:15.267Z,1004.48
2017-01-30T01:41:37.047Z,1004.51
2017-01-30T01:41:58.847Z,1004.50
2017-01-30T01:42:20.553Z,1004.52
2017-01-30T01:42:42.340Z,1004.49
2017-01-30T01:43:04.133Z,1004.54
2017-01-30T01:43:30.695Z,1004.50
2017-01-30T01:43:52.493Z,1004.52
2017-01-30T01:44:14.387Z,1004.47
2017-01-30T01:44:40.873Z,1004.40
2017-01-30T01:45:02.654Z,1004.41
2017-01-30T01:45:24.452Z,1004.42
2017-01-30T01:45:46.160Z,1004.45
2017-01-30T01:46:07.957Z,1004.45
2017-01-30T01:46:29.745Z,1004.57
2017-01-30T01:47:22.693Z,1004.59
2017-01-30T01:47:44.479Z,1004.62
2017-01-30T01:48:10.956Z,1004.56
2017-01-30T01:48:32.681Z,1004.51
2017-01-30T01:48:54.380Z,1004.47
2017-01-30T01:49:16.273Z,1004.51
2017-01-30T01:49:37.967Z,1004.53
2017-01-30T01:49:59.775Z,1004.53
2017-01-30T01:50:21.562Z,1004.50
2017-01-30T01:50:43.342Z,1004.51
2017-01-30T01:51:05.047Z,1004.54
2017-01-30T01:51:26.744Z,1004.57
2017-01-30T01:51:48.533Z,1004.49
2017-01-30T01:52:10.235Z,1004.50
2017-01-30T01:52:32.032Z,1004.52
2017-01-30T01:52:53.831Z,1004.46
2017-01-30T01:53:15.536Z,1004.43
2017-01-30T01:53:42.004Z,1004.50
2017-01-30T01:54:03.696Z,1004.53
2017-01-30T01:54:25.430Z,1004.48
2017-01-30T01:54:51.989Z,1004.44
2017-01-30T01:55:13.788Z,1004.49
2017-01-30T01:56:06.749Z,1004.45
2017-01-30T01:56:28.544Z,1004.45
2017-01-30T01:56:50.419Z,1004.47
2017-01-30T01:57:12.118Z,1004.47
2017-01-30T01:57:33.815Z,1004.47
2017-01-30T01:57:55.606Z,1004.42
2017-01-30T01:58:17.395Z,1004.46
2017-01-30T01:58:39.093Z,1004.47
2017-01-30T01:59:05.663Z,1004.40
2017-01-30T01:59:27.390Z,1004.42
2017-01-30T01:59:51.994Z,1004.46
2017-01-30T02:00:13.691Z,1004.40
2017-01-30T02:00:35.484Z,1004.41
2017-01-30T02:00:57.271Z,1004.42
2017-01-30T02:01:18.960Z,1004.41
2017-01-30T02:01:40.664Z,1004.42
2017-01-30T02:02:02.364Z,1004.43
2017-01-30T02:03:00.758Z,1004.37
2017-01-30T02:03:22.565Z,1004.42
2017-01-30T02:03:44.279Z,1004.42
2017-01-30T02:04:05.983Z,1004.38
2017-01-30T02:04:27.800Z,1004.37
2017-01-30T02:04:49.544Z,1004.35
2017-01-30T02:05:42.538Z,1004.37
2017-01-30T02:06:09.029Z,1004.31
2017-01-30T02:06:30.734Z,1004.32
2017-01-30T02:06:52.527Z,1004.32
2017-01-30T02:07:14.457Z,1004.29
2017-01-30T02:07:36.167Z,1004.30
2017-01-30T02:08:29.113Z,1004.29
2017-01-30T02:08:50.805Z,1004.28
2017-01-30T02:09:12.503Z,1004.32
2017-01-30T02:09:34.197Z,1004.27
2017-01-30T02:10:00.759Z,1004.26
2017-01-30T02:10:22.566Z,1004.24
2017-01-30T02:10:44.268Z,1004.24
2017-01-30T02:11:05.970Z,1004.28
2017-01-30T02:11:32.434Z,1004.27
2017-01-30T02:11:59.001Z,1004.31
2017-01-30T02:12:20.701Z,1004.31
2017-01-30T02:12:42.506Z,1004.29
2017-01-30T02:13:04.302Z,1004.26
2017-01-30T02:13:26.099Z,1004.31
2017-01-30T02:13:47.797Z,1004.27
2017-01-30T02:14:09.510Z,1004.34
2017-01-30T02:14:31.302Z,1004.27
2017-01-30T02:14:53.100Z,1004.25
2017-01-30T02:15:14.926Z,1004.26
2017-01-30T02:15:36.620Z,1004.27
2017-01-30T02:16:29.576Z,1004.23
2017-01-30T02:16:56.070Z,1004.19
2017-01-30T02:17:17.884Z,1004.22
2017-01-30T02:17:39.587Z,1004.23
2017-01-30T02:18:01.292Z,1004.27
2017-01-30T02:18:23.116Z,1004.17
2017-01-30T02:18:49.622Z,1004.25
2017-01-30T02:19:11.499Z,1004.25
2017-01-30T02:19:33.298Z,1004.18
2017-01-30T02:19:59.768Z,1004.24
2017-01-30T02:20:21.469Z,1004.26
2017-01-30T02:20:47.942Z,1004.25
2017-01-30T02:21:09.666Z,1004.25
2017-01-30T02:21:31.360Z,1004.27
2017-01-30T02:21:53.072Z,1004.24
2017-01-30T02:22:14.874Z,1004.23
2017-01-30T02:22:36.575Z,1004.15
2017-01-30T02:22:58.283Z,1004.22
2017-01-30T02:23:19.979Z,1004.16
2017-01-30T02:23:41.788Z,1004.15
2017-01-30T02:24:03.488Z,1004.14
2017-01-30T02:24:25.193Z,1004.18
2017-01-30T02:24:46.896Z,1004.16
2017-01-30T02:25:13.364Z,1004.13
2017-01-30T02:25:35.161Z,1004.21
2017-01-30T02:25:56.871Z,1004.14
2017-01-30T02:26:49.910Z,1004.25
2017-01-30T02:27:11.603Z,1004.22
2017-01-30T02:28:04.639Z,1004.11
2017-01-30T02:28:26.335Z,1004.13
2017-01-30T02:28:48.044Z,1004.17
2017-01-30T02:29:09.825Z,1004.14
2017-01-30T02:29:31.546Z,1004.10
2017-01-30T02:30:24.585Z,1004.05
2017-01-30T02:30:46.293Z,1004.03
2017-01-30T02:31:08.017Z,1004.04
2017-01-30T02:31:29.730Z,1003.98
2017-01-30T02:31:51.438Z,1004.06
2017-01-30T02:32:18.006Z,1004.05
2017-01-30T02:32:39.707Z,1004.08
2017-01-30T02:33:01.399Z,1004.15
2017-01-30T02:33:27.877Z,1004.13
2017-01-30T02:33:49.664Z,1004.01
2017-01-30T02:34:16.139Z,1003.97
2017-01-30T02:34:37.835Z,1004.02
2017-01-30T02:34:59.628Z,1004.00
2017-01-30T02:35:26.109Z,1003.97
2017-01-30T02:35:47.812Z,1003.98
2017-01-30T02:36:09.617Z,1004.03
2017-01-30T02:37:12.698Z,1003.97
2017-01-30T02:37:34.509Z,1003.99
2017-01-30T02:37:56.202Z,1004.02
2017-01-30T02:38:17.909Z,1003.95
2017-01-30T02:38:39.610Z,1003.91
2017-01-30T02:39:01.406Z,1003.94
2017-01-30T02:39:23.113Z,1003.93
2017-01-30T02:39:44.806Z,1003.91
2017-01-30T02:40:11.289Z,1003.84
2017-01-30T02:40:33.075Z,1003.87
2017-01-30T02:40:59.553Z,1003.94
2017-01-30T02:41:21.272Z,1003.88
2017-01-30T02:41:47.755Z,1003.89
2017-01-30T02:42:09.548Z,1003.89
2017-01-30T02:42:31.247Z,1003.96
2017-01-30T02:43:24.314Z,1003.85
2017-01-30T02:43:46.005Z,1003.86
2017-01-30T02:44:07.719Z,1003.86
2017-01-30T02:44:29.576Z,1003.84
2017-01-30T02:44:51.274Z,1003.90
2017-01-30T02:45:12.982Z,1003.84
2017-01-30T02:45:34.679Z,1003.82
2017-01-30T02:45:56.485Z,1003.94
2017-01-30T02:46:49.457Z,1003.81
2017-01-30T02:47:11.256Z,1003.82
2017-01-30T02:47:32.982Z,1003.80
2017-01-30T02:47:54.677Z,1003.79
2017-01-30T02:48:16.374Z,1003.78
2017-01-30T02:48:38.175Z,1003.78
2017-01-30T02:48:59.865Z,1003.71
2017-01-30T02:49:21.568Z,1003.73
2017-01-30T02:49:48.044Z,1003.73
2017-01-30T02:50:09.828Z,1003.75
2017-01-30T02:50:31.532Z,1003.67
2017-01-30T02:50:58.017Z,1003.65
2017-01-30T02:51:19.801Z,1003.67
2017-01-30T02:51:41.528Z,1003.61
2017-01-30T02:52:03.236Z,1003.66
2017-01-30T02:52:24.936Z,1003.65
2017-01-30T02:52:46.719Z,1003.64
2017-01-30T02:53:08.426Z,1003.63
2017-01-30T02:53:30.185Z,1003.61
2017-01-30T02:53:51.891Z,1003.61
2017-01-30T02:54:44.936Z,1003.64
2017-01-30T02:55:06.646Z,1003.62
2017-01-30T02:55:28.347Z,1003.54
2017-01-30T02:55:50.140Z,1003.55
2017-01-30T02:56:11.858Z,1003.54
2017-01-30T02:57:04.913Z,1003.55
2017-01-30T02:57:31.394Z,1003.50
2017-01-30T02:57:53.092Z,1003.52
2017-01-30T02:58:46.138Z,1003.50
2017-01-30T02:59:07.844Z,1003.51
2017-01-30T02:59:34.322Z,1003.49
2017-01-30T02:59:56.111Z,1003.48
2017-01-30T03:00:17.812Z,1003.49
2017-01-30T03:00:44.286Z,1003.41
2017-01-30T03:01:05.985Z,1003.45
2017-01-30T03:01:32.457Z,1003.44
2017-01-30T03:01:54.257Z,1003.44
2017-01-30T03:02:15.994Z,1003.36
2017-01-30T03:02:37.700Z,1003.40
2017-01-30T03:02:59.522Z,1003.41
2017-01-30T03:03:52.482Z,1003.37
2017-01-30T03:04:18.982Z,1003.41
2017-01-30T03:04:40.773Z,1003.45
2017-01-30T03:05:07.251Z,1003.38
2017-01-30T03:05:28.947Z,1003.41
2017-01-30T03:06:21.991Z,1003.37
2017-01-30T03:06:43.695Z,1003.37
2017-01-30T03:07:05.408Z,1003.42
2017-01-30T03:07:27.236Z,1003.38
2017-01-30T03:08:30.319Z,1003.36
2017-01-30T03:08:52.106Z,1003.33
2017-01-30T03:09:18.590Z,1003.32
2017-01-30T03:09:40.280Z,1003.32
2017-01-30T03:11:03.278Z,1003.32
2017-01-30T03:11:24.973Z,1003.43
2017-01-30T03:11:46.778Z,1003.38
2017-01-30T03:12:13.259Z,1003.32
2017-01-30T03:12:34.982Z,1003.32
2017-01-30T03:13:01.456Z,1003.38
2017-01-30T03:13:23.251Z,1003.34
2017-01-30T03:13:49.739Z,1003.31
2017-01-30T03:14:11.472Z,1003.30
2017-01-30T03:14:37.951Z,1003.26
2017-01-30T03:14:59.742Z,1003.34
2017-01-30T03:15:26.215Z,1003.29
2017-01-30T03:15:47.920Z,1003.30
2017-01-30T03:16:14.399Z,1003.35
2017-01-30T03:16:36.183Z,1003.28
2017-01-30T03:16:57.901Z,1003.31
2017-01-30T03:17:50.966Z,1003.33
2017-01-30T03:18:20.456Z,1003.35
2017-01-30T03:18:45.612Z,1003.34
2017-01-30T03:19:42.196Z,1003.38
2017-01-30T03:20:03.992Z,1003.39
2017-01-30T03:20:56.960Z,1003.34
2017-01-30T03:22:00.204Z,1003.43
2017-01-30T03:22:22.113Z,1003.35
2017-01-30T03:22:43.835Z,1003.35
2017-01-30T03:23:10.315Z,1003.33
2017-01-30T03:23:32.104Z,1003.34
2017-01-30T03:23:53.805Z,1003.34
2017-01-30T03:24:15.515Z,1003.32
2017-01-30T03:24:37.252Z,1003.35
2017-01-30T03:24:58.965Z,1003.32
2017-01-30T03:25:25.451Z,1003.38
2017-01-30T03:25:47.164Z,1003.33
2017-01-30T03:26:08.944Z,1003.39
2017-01-30T03:26:30.648Z,1003.35
2017-01-30T03:26:52.342Z,1003.32
2017-01-30T03:27:21.851Z,1003.33
2017-01-30T03:27:48.968Z,1003.34
2017-01-30T03:28:10.681Z,1003.32
2017-01-30T03:28:32.374Z,1003.30
2017-01-30T03:28:54.168Z,1003.31
2017-01-30T03:29:21.222Z,1003.31
2017-01-30T03:29:48.070Z,1003.32
2017-01-30T03:30:14.577Z,1003.32
2017-01-30T03:30:36.391Z,1003.30
2017-01-30T03:31:29.334Z,1003.32
2017-01-30T03:31:51.060Z,1003.36
2017-01-30T03:32:15.491Z,1003.31
2017-01-30T03:33:08.467Z,1003.33
2017-01-30T03:33:34.953Z,1003.33
2017-01-30T03:34:01.422Z,1003.27
2017-01-30T03:34:27.902Z,1003.30
2017-01-30T03:34:49.629Z,1003.28
2017-01-30T03:35:16.198Z,1003.31
2017-01-30T03:35:37.960Z,1003.25
2017-01-30T03:36:04.454Z,1003.25
2017-01-30T03:36:26.188Z,1003.23
2017-01-30T03:37:24.542Z,1003.28
2017-01-30T03:37:46.237Z,1003.29
2017-01-30T03:38:39.192Z,1003.27
2017-01-30T03:39:37.603Z,1003.29
2017-01-30T03:39:59.311Z,1003.24
2017-01-30T03:40:21.016Z,1003.21
2017-01-30T03:41:19.321Z,1003.21
2017-01-30T03:41:41.132Z,1003.27
2017-01-30T03:42:07.613Z,1003.27
2017-01-30T03:42:29.319Z,1003.29
2017-01-30T03:43:36.642Z,1003.25
2017-01-30T03:43:58.367Z,1003.24
2017-01-30T03:44:20.104Z,1003.29
2017-01-30T03:44:41.919Z,1003.27
2017-01-30T03:45:03.719Z,1003.25
2017-01-30T03:46:10.995Z,1003.27
2017-01-30T03:46:32.707Z,1003.27
2017-01-30T03:46:54.523Z,1003.23
2017-01-30T03:47:18.925Z,1003.24
2017-01-30T03:48:11.902Z,1003.29
2017-01-30T03:49:04.865Z,1003.24
2017-01-30T03:49:57.853Z,1003.24
2017-01-30T03:50:50.868Z,1003.19
2017-01-30T03:51:43.827Z,1003.16
2017-01-30T03:53:17.662Z,1003.09
2017-01-30T03:54:51.426Z,1003.10
2017-01-30T03:55:13.157Z,1003.03
2017-01-30T03:55:34.880Z,1003.10
2017-01-30T03:55:56.591Z,1003.02
2017-01-30T03:56:18.310Z,1003.06
2017-01-30T03:56:40.039Z,1003.05
2017-01-30T03:57:01.739Z,1003.06
2017-01-30T03:57:54.693Z,1003.03
2017-01-30T03:58:16.396Z,1003.08
2017-01-30T03:58:38.118Z,1003.01
2017-01-30T03:58:59.924Z,1003.05
2017-01-30T03:59:26.422Z,1003.04
2017-01-30T03:59:48.161Z,1003.03
2017-01-30T04:00:09.868Z,1003.05
2017-01-30T04:00:36.343Z,1003.05
2017-01-30T04:00:58.162Z,1003.11
2017-01-30T04:01:24.638Z,1003.04
2017-01-30T04:01:46.330Z,1003.05
2017-01-30T04:02:12.803Z,1003.08
2017-01-30T04:02:34.518Z,1003.06
2017-01-30T04:02:56.233Z,1003.12
2017-01-30T04:03:58.841Z,1003.08
2017-01-30T04:04:20.545Z,1003.14
2017-01-30T04:04:42.252Z,1003.13
2017-01-30T04:05:04.052Z,1003.09
2017-01-30T04:05:25.759Z,1003.14
2017-01-30T04:05:47.461Z,1003.13
2017-01-30T04:06:14.050Z,1003.23
2017-01-30T04:06:35.847Z,1003.20
2017-01-30T04:07:02.317Z,1003.20
2017-01-30T04:07:24.024Z,1003.17
2017-01-30T04:07:45.868Z,1003.16
2017-01-30T04:08:12.426Z,1003.15
2017-01-30T04:08:34.130Z,1003.22
2017-01-30T04:08:55.865Z,1003.18
2017-01-30T04:09:22.343Z,1003.15
2017-01-30T04:09:44.057Z,1003.18
2017-01-30T04:10:05.929Z,1003.24
2017-01-30T04:10:32.408Z,1003.25
2017-01-30T04:10:54.100Z,1003.20
2017-01-30T04:11:15.841Z,1003.20
2017-01-30T04:11:37.543Z,1003.16
2017-01-30T04:11:59.295Z,1003.12
2017-01-30T04:12:52.251Z,1003.16
2017-01-30T04:13:13.948Z,1003.13
2017-01-30T04:13:40.427Z,1003.19
2017-01-30T04:14:02.136Z,1003.17
2017-01-30T04:15:07.627Z,1003.10
2017-01-30T04:15:29.337Z,1003.12
2017-01-30T04:16:27.622Z,1003.15
2017-01-30T04:16:49.339Z,1003.02
2017-01-30T04:17:15.820Z,1003.11
2017-01-30T04:17:37.525Z,1003.04
2017-01-30T04:17:59.231Z,1003.00
2017-01-30T04:18:25.707Z,1002.98
2017-01-30T04:18:47.407Z,1002.98
2017-01-30T04:19:13.889Z,1003.03
2017-01-30T04:19:35.588Z,1003.05
2017-01-30T04:20:28.574Z,1003.03
2017-01-30T04:20:50.270Z,1003.06
2017-01-30T04:21:11.998Z,1003.11
2017-01-30T04:21:33.676Z,1002.96
2017-01-30T04:21:55.404Z,1003.01
2017-01-30T04:22:17.135Z,1002.98
2017-01-30T04:22:38.863Z,1003.03
2017-01-30T04:23:41.373Z,1003.06
2017-01-30T04:24:03.070Z,1003.06
2017-01-30T04:24:56.031Z,1003.06
2017-01-30T04:25:22.537Z,1003.05
2017-01-30T04:25:44.236Z,1003.03
2017-01-30T04:26:42.534Z,1003.05
2017-01-30T04:27:04.252Z,1003.09
2017-01-30T04:27:25.993Z,1003.03
2017-01-30T04:27:47.704Z,1003.01
2017-01-30T04:28:09.402Z,1003.11
2017-01-30T04:28:31.104Z,1003.13
2017-01-30T04:28:52.821Z,1003.01
2017-01-30T04:29:14.634Z,1003.00
2017-01-30T04:29:36.346Z,1003.08
2017-01-30T04:30:02.847Z,1003.07
2017-01-30T04:30:24.525Z,1003.05
2017-01-30T04:30:46.228Z,1003.02
2017-01-30T04:31:07.938Z,1002.91
2017-01-30T04:31:29.680Z,1002.97
2017-01-30T04:32:22.661Z,1002.98
2017-01-30T04:32:44.392Z,1002.94
2017-01-30T04:33:37.375Z,1002.89
2017-01-30T04:33:59.079Z,1002.93
2017-01-30T04:35:23.609Z,1002.84
2017-01-30T04:35:50.585Z,1002.83
2017-01-30T04:36:12.291Z,1002.77
2017-01-30T04:36:38.810Z,1002.80
2017-01-30T04:37:00.518Z,1002.74
2017-01-30T04:37:22.237Z,1002.72
2017-01-30T04:38:25.328Z,1002.69
2017-01-30T04:38:47.044Z,1002.70
2017-01-30T04:39:13.522Z,1002.68
2017-01-30T04:39:35.227Z,1002.69
2017-01-30T04:40:01.703Z,1002.69
2017-01-30T04:40:23.424Z,1002.67
2017-01-30T04:40:49.900Z,1002.67
2017-01-30T04:41:11.611Z,1002.65
2017-01-30T04:41:33.301Z,1002.69
2017-01-30T04:41:55.021Z,1002.68
2017-01-30T04:42:16.725Z,1002.65
2017-01-30T04:43:09.677Z,1002.70
2017-01-30T04:43:31.379Z,1002.63
2017-01-30T04:43:53.077Z,1002.63
2017-01-30T04:44:14.785Z,1002.60
2017-01-30T04:44:41.269Z,1002.59
2017-01-30T04:45:02.968Z,1002.62
2017-01-30T04:45:24.679Z,1002.59
2017-01-30T04:45:51.158Z,1002.65
2017-01-30T04:46:12.854Z,1002.68
2017-01-30T04:46:34.561Z,1002.55
2017-01-30T04:47:41.847Z,1002.51
2017-01-30T04:48:03.538Z,1002.59
2017-01-30T04:48:25.240Z,1002.56
2017-01-30T04:48:46.950Z,1002.56
2017-01-30T04:49:08.648Z,1002.52
2017-01-30T04:49:30.366Z,1002.51
2017-01-30T04:49:56.853Z,1002.53
2017-01-30T04:50:18.549Z,1002.49
2017-01-30T04:50:45.031Z,1002.54
2017-01-30T04:51:06.742Z,1002.51
2017-01-30T04:51:28.453Z,1002.50
2017-01-30T04:51:54.946Z,1002.58
2017-01-30T04:52:16.639Z,1002.52
2017-01-30T04:52:38.335Z,1002.48
2017-01-30T04:53:31.366Z,1002.53
2017-01-30T04:53:53.063Z,1002.56
2017-01-30T04:54:50.810Z,1002.48
2017-01-30T04:55:17.314Z,1002.44
2017-01-30T04:55:39.012Z,1002.41
2017-01-30T04:56:00.724Z,1002.41
2017-01-30T04:56:22.430Z,1002.46
2017-01-30T04:56:44.126Z,1002.44
2017-01-30T04:57:05.834Z,1002.42
2017-01-30T04:57:32.309Z,1002.44
2017-01-30T04:57:54.010Z,1002.42
2017-01-30T04:58:15.705Z,1002.44
2017-01-30T04:58:42.178Z,1002.41
2017-01-30T04:59:03.885Z,1002.43
2017-01-30T04:59:25.581Z,1002.39
2017-01-30T05:00:18.560Z,1002.42
2017-01-30T05:00:45.011Z,1002.43
2017-01-30T05:01:06.712Z,1002.35
2017-01-30T05:01:59.673Z,1002.39
2017-01-30T05:02:21.370Z,1002.35
2017-01-30T05:02:43.080Z,1002.37
2017-01-30T05:03:04.776Z,1002.41
2017-01-30T05:03:26.474Z,1002.39
2017-01-30T05:03:48.216Z,1002.40
2017-01-30T05:04:09.911Z,1002.40
2017-01-30T05:04:31.617Z,1002.37
2017-01-30T05:04:53.340Z,1002.25
2017-01-30T05:05:16.057Z,1002.26
2017-01-30T05:05:37.776Z,1002.26
2017-01-30T05:06:04.258Z,1002.26
2017-01-30T05:06:25.964Z,1002.25
2017-01-30T05:06:52.447Z,1002.18
2017-01-30T05:07:14.142Z,1002.23
2017-01-30T05:07:35.845Z,1002.22
2017-01-30T05:07:57.556Z,1002.21
2017-01-30T05:08:19.254Z,1002.23
2017-01-30T05:08:40.955Z,1002.26
2017-01-30T05:09:07.435Z,1002.17
2017-01-30T05:09:29.140Z,1002.23
2017-01-30T05:09:50.852Z,1002.18
2017-01-30T05:10:12.565Z,1002.16
2017-01-30T05:10:34.334Z,1002.19
2017-01-30T05:10:56.027Z,1002.19
2017-01-30T05:11:17.739Z,1002.14
2017-01-30T05:11:39.441Z,1002.18
2017-01-30T05:12:01.148Z,1002.07
2017-01-30T05:12:27.630Z,1002.13
2017-01-30T05:12:49.332Z,1002.14
2017-01-30T05:13:42.278Z,1002.13
2017-01-30T05:14:03.979Z,1002.13
2017-01-30T05:14:25.688Z,1002.08
2017-01-30T05:14:47.383Z,1002.03
2017-01-30T05:15:09.093Z,1002.04
2017-01-30T05:15:30.809Z,1002.05
2017-01-30T05:15:52.497Z,1002.02
2017-01-30T05:16:19.011Z,1001.99
2017-01-30T05:16:40.732Z,1002.00
2017-01-30T05:17:07.195Z,1001.97
2017-01-30T05:17:28.895Z,1002.00
2017-01-30T05:17:50.593Z,1001.97
2017-01-30T05:18:12.299Z,1001.94
2017-01-30T05:18:34.007Z,1001.99
2017-01-30T05:18:55.725Z,1001.93
2017-01-30T05:19:17.428Z,1001.87
2017-01-30T05:19:39.131Z,1001.91
2017-01-30T05:20:03.441Z,1001.89
2017-01-30T05:20:25.147Z,1001.95
2017-01-30T05:20:46.856Z,1001.83
2017-01-30T05:21:08.679Z,1001.82
2017-01-30T05:21:35.157Z,1001.85
2017-01-30T05:21:56.853Z,1001.84
2017-01-30T05:22:18.557Z,1001.80
2017-01-30T05:22:40.254Z,1001.77
2017-01-30T05:23:02.013Z,1001.83
2017-01-30T05:23:23.718Z,1001.80
2017-01-30T05:23:45.416Z,1001.82
2017-01-30T05:24:07.115Z,1001.81
2017-01-30T05:24:28.813Z,1001.84
2017-01-30T05:24:50.522Z,1001.73
2017-01-30T05:25:12.223Z,1001.78
2017-01-30T05:25:33.925Z,1001.80
2017-01-30T05:25:55.632Z,1001.74
2017-01-30T05:26:17.355Z,1001.74
2017-01-30T05:26:39.051Z,1001.74
2017-01-30T05:27:00.757Z,1001.75
2017-01-30T05:27:22.476Z,1001.74
2017-01-30T05:27:46.392Z,1001.75
2017-01-30T05:28:08.098Z,1001.70
2017-01-30T05:28:29.809Z,1001.70
2017-01-30T05:28:51.512Z,1001.68
2017-01-30T05:29:13.214Z,1001.71
2017-01-30T05:29:34.915Z,1001.68
2017-01-30T05:29:56.614Z,1001.70
2017-01-30T05:30:23.102Z,1001.62
2017-01-30T05:30:44.792Z,1001.66
2017-01-30T05:31:11.268Z,1001.68
2017-01-30T05:31:32.984Z,1001.61
2017-01-30T05:31:59.479Z,1001.63
2017-01-30T05:32:21.173Z,1001.68
2017-01-30T05:33:14.136Z,1001.69
2017-01-30T05:33:35.837Z,1001.60
2017-01-30T05:34:02.310Z,1001.65
2017-01-30T05:34:24.120Z,1001.58